Time;durP1;ratioP1;P1;durP2;ratioP2;P2;SDS_P1;SDS_P2;PMS_P1;PMS_P2;Temp;Humidity;BMP_temperature;BMP_pressure;BME280_temperature;BME280_humidity;BME280_pressure;Samples;Min_cycle;Max_cycle;Signal;HPM_P1;HPM_P2
2023/04/19 00:02:27;;;;;;;22.77;20.90;;;;;;;-145.53;100.00;64590.91;6254076;22;20543;-63
2023/04/19 00:05:31;;;;;;;23.90;22.00;;;;;;;-145.53;100.00;64590.91;6269862;28;20907;-63
2023/04/19 00:08:34;;;;;;;23.80;21.90;;;;;;;-145.53;100.00;64590.91;6255734;28;20465;-63
2023/04/19 00:11:39;;;;;;;23.40;21.40;;;;;;;-145.53;100.00;64590.91;6272719;28;20889;-64
2023/04/19 00:14:42;;;;;;;21.63;19.83;;;;;;;-145.53;100.00;64590.91;6278682;28;20426;-63
2023/04/19 00:17:45;;;;;;;22.80;21.00;;;;;;;-145.53;100.00;64590.91;6282607;28;20461;-63
2023/04/19 00:20:48;;;;;;;20.90;19.10;;;;;;;-145.53;100.00;64590.91;6285648;28;20438;-63
2023/04/19 00:23:52;;;;;;;21.47;19.77;;;;;;;-145.53;100.00;64590.91;6282814;28;20442;-64
2023/04/19 00:26:57;;;;;;;21.03;19.43;;;;;;;-145.53;100.00;64590.91;6273137;28;20937;-62
2023/04/19 00:30:01;;;;;;;21.30;19.60;;;;;;;-145.53;100.00;64590.91;6271451;28;20434;-63
2023/04/19 00:33:04;;;;;;;21.77;19.97;;;;;;;-145.53;100.00;64590.91;6289821;28;20434;-63
2023/04/19 00:36:09;;;;;;;21.47;19.70;;;;;;;-145.53;100.00;64590.91;6274158;28;20790;-62
2023/04/19 00:39:12;;;;;;;20.83;19.23;;;;;;;-145.53;100.00;64590.91;6276815;28;20930;-62
2023/04/19 00:42:17;;;;;;;21.77;19.87;;;;;;;-145.53;100.00;64590.91;6263013;28;20427;-62
2023/04/19 00:45:20;;;;;;;21.37;19.67;;;;;;;-145.53;100.00;64590.91;6272429;28;20428;-63
2023/04/19 00:48:24;;;;;;;21.37;19.67;;;;;;;-145.53;100.00;64590.91;6282608;28;20457;-63
2023/04/19 00:51:27;;;;;;;20.03;18.30;;;;;;;-145.53;100.00;64590.91;6272685;28;20522;-63
2023/04/19 00:54:30;;;;;;;19.83;18.23;;;;;;;-145.53;100.00;64590.91;6265957;28;20431;-63
2023/04/19 00:57:37;;;;;;;20.47;18.87;;;;;;;-145.53;100.00;64590.91;6275179;28;20915;-63
2023/04/19 01:00:40;;;;;;;19.63;18.03;;;;;;;-145.53;100.00;64590.91;6284147;28;20421;-72
2023/04/19 01:03:43;;;;;;;19.57;17.87;;;;;;;-145.53;100.00;64590.91;6287751;28;20438;-63
2023/04/19 01:06:46;;;;;;;20.40;18.70;;;;;;;-145.53;100.00;64590.91;6275650;28;20434;-63
2023/04/19 01:09:51;;;;;;;19.07;17.57;;;;;;;-145.53;100.00;64590.91;6278623;28;20576;-63
2023/04/19 01:12:55;;;;;;;19.83;18.23;;;;;;;-145.53;100.00;64590.91;6285709;28;20426;-63
2023/04/19 01:15:58;;;;;;;20.70;19.10;;;;;;;-145.53;100.00;64590.91;6266521;28;20443;-63
2023/04/19 01:19:01;;;;;;;19.30;17.80;;;;;;;-145.53;100.00;64590.91;6282236;28;20431;-63
2023/04/19 01:22:05;;;;;;;19.27;17.70;;;;;;;-145.53;100.00;64590.91;6276140;28;20538;-62
2023/04/19 01:25:10;;;;;;;18.07;16.63;;;;;;;-145.53;100.00;64590.91;6292149;28;20427;-64
2023/04/19 01:28:13;;;;;;;19.37;17.83;;;;;;;-145.53;100.00;64590.91;6261397;28;20450;-63
2023/04/19 01:31:16;;;;;;;18.30;16.90;;;;;;;-145.53;100.00;64590.91;6272762;28;20423;-63
2023/04/19 01:34:21;;;;;;;18.23;16.70;;;;;;;-145.53;100.00;64590.91;6289106;28;20572;-63
2023/04/19 01:37:25;;;;;;;18.20;16.70;;;;;;;-145.53;100.00;64590.91;6266869;28;20769;-64
2023/04/19 01:40:29;;;;;;;17.60;16.20;;;;;;;-145.53;100.00;64590.91;6271263;28;20441;-62
2023/04/19 01:43:32;;;;;;;17.80;16.37;;;;;;;-145.53;100.00;64590.91;6271438;28;20439;-64
2023/04/19 01:46:37;;;;;;;18.00;16.60;;;;;;;-145.53;100.00;64590.91;6271809;28;20478;-63
2023/04/19 01:49:40;;;;;;;16.87;15.57;;;;;;;-145.53;100.00;64590.91;6278316;28;20434;-63
2023/04/19 01:52:43;;;;;;;16.63;15.37;;;;;;;-145.53;100.00;64590.91;6282987;28;20569;-63
2023/04/19 01:55:48;;;;;;;18.80;17.30;;;;;;;-145.53;100.00;64590.91;6271131;28;20510;-63
2023/04/19 01:58:51;;;;;;;16.43;15.13;;;;;;;-145.53;100.00;64590.91;6276951;28;20426;-63
2023/04/19 02:01:54;;;;;;;17.10;15.70;;;;;;;-145.53;100.00;64590.91;6265756;28;21001;-63
2023/04/19 02:04:57;;;;;;;16.70;15.40;;;;;;;-145.53;100.00;64590.91;6273790;28;20441;-63
2023/04/19 02:08:01;;;;;;;16.13;14.93;;;;;;;-145.53;100.00;64590.91;6271704;28;20438;-63
2023/04/19 02:11:08;;;;;;;16.00;14.80;;;;;;;-145.53;100.00;64590.91;6273318;28;20922;-63
2023/04/19 02:14:11;;;;;;;15.73;14.53;;;;;;;-145.53;100.00;64590.91;6264704;28;20438;-63
2023/04/19 02:17:15;;;;;;;14.70;13.60;;;;;;;-145.53;100.00;64590.91;6282587;28;20437;-63
2023/04/19 02:20:18;;;;;;;15.20;14.00;;;;;;;-145.53;100.00;64590.91;6271688;28;20431;-62
2023/04/19 02:23:22;;;;;;;15.10;13.90;;;;;;;-145.53;100.00;64590.91;6261101;28;20489;-62
2023/04/19 02:26:26;;;;;;;14.50;13.40;;;;;;;-145.53;100.00;64590.91;6283108;28;20518;-71
2023/04/19 02:29:29;;;;;;;15.47;14.27;;;;;;;-145.53;100.00;64590.91;6278120;28;20514;-62
2023/04/19 02:32:32;;;;;;;14.50;13.40;;;;;;;-145.53;100.00;64590.91;6275272;28;20437;-63
2023/04/19 02:35:36;;;;;;;14.50;13.40;;;;;;;-145.53;100.00;64590.91;6265241;28;20525;-64
2023/04/19 02:38:39;;;;;;;13.63;12.53;;;;;;;-145.53;100.00;64590.91;6276390;28;20521;-62
2023/04/19 02:41:44;;;;;;;12.07;11.17;;;;;;;-145.53;100.00;64590.91;6274669;28;20914;-62
2023/04/19 02:44:47;;;;;;;12.47;11.47;;;;;;;-145.53;100.00;64590.91;6284574;28;20430;-63
2023/04/19 02:47:50;;;;;;;11.77;10.87;;;;;;;-145.53;100.00;64590.91;6270947;28;20427;-64
2023/04/19 02:50:53;;;;;;;12.30;11.20;;;;;;;-145.53;100.00;64590.91;6276895;28;20443;-64
2023/04/19 02:53:56;;;;;;;11.77;10.77;;;;;;;-145.53;100.00;64590.91;6282809;28;20449;-64
2023/04/19 02:57:00;;;;;;;12.40;11.30;;;;;;;-145.53;100.00;64590.91;6281809;28;20950;-64
2023/04/19 03:00:05;;;;;;;11.77;10.90;;;;;;;-145.53;100.00;64590.91;6270096;28;20439;-63
2023/04/19 03:03:08;;;;;;;11.50;10.60;;;;;;;-145.53;100.00;64590.91;6296822;28;20466;-64
2023/04/19 03:06:11;;;;;;;10.20;9.40;;;;;;;-145.53;100.00;64590.91;6251285;28;20424;-62
2023/04/19 03:09:14;;;;;;;8.80;6.47;;;;;;;-145.53;100.00;64590.91;6268521;28;20521;-63
2023/04/19 03:12:19;;;;;;;5.87;5.40;;;;;;;-145.53;100.00;64590.91;6280492;28;20431;-63
2023/04/19 03:15:22;;;;;;;6.10;5.30;;;;;;;-145.53;100.00;64590.91;6276588;28;20423;-63
2023/04/19 03:18:25;;;;;;;7.10;6.50;;;;;;;-145.53;100.00;64590.91;6291004;28;20475;-66
2023/04/19 03:21:28;;;;;;;5.43;4.93;;;;;;;-145.53;100.00;64590.91;6267186;28;20517;-63
2023/04/19 03:24:31;;;;;;;3.83;3.53;;;;;;;-145.53;100.00;64590.91;6276139;28;20435;-65
2023/04/19 03:27:38;;;;;;;6.43;3.80;;;;;;;-145.53;100.00;64590.91;6274632;28;20438;-62
2023/04/19 03:30:41;;;;;;;5.80;3.37;;;;;;;-145.53;100.00;64590.91;6272353;28;20451;-63
2023/04/19 03:33:44;;;;;;;3.43;3.20;;;;;;;-145.53;100.00;64590.91;6266916;28;20521;-62
2023/04/19 03:36:47;;;;;;;3.77;3.47;;;;;;;-145.53;100.00;64590.91;6274545;28;20458;-63
2023/04/19 03:39:50;;;;;;;3.80;3.50;;;;;;;-145.53;100.00;64590.91;6282581;28;20921;-63
2023/04/19 03:42:55;;;;;;;3.07;2.87;;;;;;;-145.53;100.00;64590.91;6262111;28;20441;-62
2023/04/19 03:45:58;;;;;;;3.20;2.90;;;;;;;-145.53;100.00;64590.91;6280491;28;20435;-64
2023/04/19 03:49:01;;;;;;;4.60;3.30;;;;;;;-145.53;100.00;64590.91;6274156;28;21062;-65
2023/04/19 03:52:04;;;;;;;4.43;2.83;;;;;;;-145.53;100.00;64590.91;6279510;28;20786;-64
2023/04/19 03:55:08;;;;;;;4.00;2.70;;;;;;;-145.53;100.00;64590.91;6262243;28;20446;-65
2023/04/19 03:58:13;;;;;;;3.20;2.90;;;;;;;-145.53;100.00;64590.91;6273431;28;20440;-63
2023/04/19 04:01:20;;;;;;;3.33;2.80;;;;;;;-145.53;100.00;64590.91;6273845;28;20538;-63
2023/04/19 04:04:23;;;;;;;3.00;2.80;;;;;;;-145.53;100.00;64590.91;6277412;28;20796;-62
2023/04/19 04:07:26;;;;;;;3.47;2.90;;;;;;;-145.53;100.00;64590.91;6266585;28;20966;-64
2023/04/19 04:10:29;;;;;;;3.90;2.90;;;;;;;-145.53;100.00;64590.91;6284527;28;20569;-63
2023/04/19 04:13:34;;;;;;;3.23;2.93;;;;;;;-145.53;100.00;64590.91;6289904;28;20427;-63
2023/04/19 04:16:37;;;;;;;3.23;2.93;;;;;;;-145.53;100.00;64590.91;6278640;28;20443;-64
2023/04/19 04:19:40;;;;;;;3.50;2.37;;;;;;;-145.53;100.00;64590.91;6285879;28;20439;-63
2023/04/19 04:22:44;;;;;;;3.50;2.80;;;;;;;-145.53;100.00;64590.91;6280112;28;20423;-65
2023/04/19 04:25:48;;;;;;;5.00;2.77;;;;;;;-145.53;100.00;64590.91;6273395;28;20431;-67
2023/04/19 04:28:52;;;;;;;3.57;2.40;;;;;;;-145.53;100.00;64590.91;6262550;28;20442;-67
2023/04/19 04:31:56;;;;;;;3.73;3.33;;;;;;;-145.53;100.00;64590.91;6273346;28;20429;-68
2023/04/19 04:34:59;;;;;;;2.60;2.40;;;;;;;-145.53;100.00;64590.91;6273412;28;20750;-67
2023/04/19 04:38:04;;;;;;;2.30;2.20;;;;;;;-145.53;100.00;64590.91;6273834;28;20431;-67
2023/04/19 04:41:19;;;;;;;2.80;2.60;;;;;;;-145.53;100.00;64590.91;6262295;28;20446;-67
2023/04/19 04:44:26;;;;;;;3.20;2.40;;;;;;;-145.53;100.00;64590.91;6272550;28;20462;-67
2023/04/19 04:47:32;;;;;;;2.53;2.33;;;;;;;-145.53;100.00;64590.91;6272997;28;20522;-67
2023/04/19 04:50:35;;;;;;;2.80;2.23;;;;;;;-145.53;100.00;64590.91;6267242;28;20499;-67
2023/04/19 04:53:38;;;;;;;3.00;2.70;;;;;;;-145.53;100.00;64590.91;6266879;28;20438;-67
2023/04/19 04:56:42;;;;;;;2.17;1.97;;;;;;;-145.53;100.00;64590.91;6272735;28;20474;-67
2023/04/19 04:59:47;;;;;;;2.80;2.50;;;;;;;-145.53;100.00;64590.91;6272806;28;20427;-67
2023/04/19 05:02:50;;;;;;;2.53;2.33;;;;;;;-145.53;100.00;64590.91;6260956;28;20442;-67
2023/04/19 05:05:53;;;;;;;2.93;2.20;;;;;;;-145.53;100.00;64590.91;6272539;28;20423;-67
2023/04/19 05:08:56;;;;;;;3.10;2.33;;;;;;;-145.53;100.00;64590.91;6272961;28;20574;-66
2023/04/19 05:12:00;;;;;;;4.60;2.40;;;;;;;-145.53;100.00;64590.91;6272901;28;20430;-66
2023/04/19 05:15:06;;;;;;;2.30;2.10;;;;;;;-145.53;100.00;64590.91;6261881;28;20438;-66
2023/04/19 05:18:09;;;;;;;3.40;3.20;;;;;;;-145.53;100.00;64590.91;6272937;28;20550;-66
2023/04/19 05:21:12;;;;;;;2.80;2.50;;;;;;;-145.53;100.00;64590.91;6272474;28;20419;-67
2023/04/19 05:24:16;;;;;;;3.00;2.73;;;;;;;-145.53;100.00;64590.91;6272130;28;20429;-67
2023/04/19 05:27:19;;;;;;;3.47;3.17;;;;;;;-145.53;100.00;64590.91;6265897;28;20446;-67
2023/04/19 05:30:24;;;;;;;3.27;2.97;;;;;;;-145.53;100.00;64590.91;6272213;28;20570;-66
2023/04/19 05:33:28;;;;;;;4.87;3.63;;;;;;;-145.53;100.00;64590.91;6272209;28;20427;-67
2023/04/19 05:36:31;;;;;;;3.83;3.17;;;;;;;-145.53;100.00;64590.91;6262416;28;20446;-66
2023/04/19 05:39:34;;;;;;;4.80;3.93;;;;;;;-145.53;100.00;64590.91;6271820;28;20446;-66
2023/04/19 05:42:38;;;;;;;5.17;3.60;;;;;;;-145.53;100.00;64590.91;6272541;28;20426;-66
2023/04/19 05:45:43;;;;;;;4.47;4.07;;;;;;;-145.53;100.00;64590.91;6271820;28;20457;-66
2023/04/19 05:48:46;;;;;;;3.80;3.50;;;;;;;-145.53;100.00;64590.91;6260880;28;20439;-66
2023/04/19 05:51:49;;;;;;;4.20;3.80;;;;;;;-145.53;100.00;64590.91;6271921;28;20423;-67
2023/04/19 05:54:52;;;;;;;4.70;4.30;;;;;;;-145.53;100.00;64590.91;6272124;28;20982;-66
2023/04/19 05:57:55;;;;;;;4.70;4.27;;;;;;;-145.53;100.00;64590.91;6272192;28;20427;-65
2023/04/19 06:01:00;;;;;;;5.60;4.50;;;;;;;-145.53;100.00;64590.91;6261571;28;20458;-65
2023/04/19 06:04:04;;;;;;;5.13;4.13;;;;;;;-145.53;100.00;64590.91;6278151;28;20509;-65
2023/04/19 06:07:07;;;;;;;5.73;4.70;;;;;;;-145.53;100.00;64590.91;6280329;28;20427;-65
2023/04/19 06:10:30;;;;;;;5.40;4.23;;;;;;;-145.53;100.00;64590.91;6270889;28;20435;-66
2023/04/19 06:13:53;;;;;;;6.40;4.40;;;;;;;-145.53;100.00;64590.91;6255379;28;20420;-65
2023/04/19 06:16:58;;;;;;;7.67;4.63;;;;;;;-145.53;100.00;64590.91;6254922;28;20507;-67
2023/04/19 06:20:01;;;;;;;5.70;4.53;;;;;;;-145.53;100.00;64590.91;6255052;28;20439;-67
2023/04/19 06:23:04;;;;;;;6.13;4.60;;;;;;;-145.53;100.00;64590.91;6244231;28;20820;-65
2023/04/19 06:26:07;;;;;;;5.03;4.37;;;;;;;-145.53;100.00;64590.91;6255044;28;20439;-65
2023/04/19 06:29:10;;;;;;;5.47;4.40;;;;;;;-145.53;100.00;64590.91;6255290;28;20432;-65
2023/04/19 06:32:15;;;;;;;4.80;4.40;;;;;;;-145.53;100.00;64590.91;6254901;28;20917;-65
2023/04/19 06:35:18;;;;;;;5.13;4.63;;;;;;;-145.53;100.00;64590.91;6243472;28;20522;-66
2023/04/19 06:38:21;;;;;;;5.87;4.03;;;;;;;-145.53;100.00;64590.91;6254857;28;20944;-65
2023/04/19 06:41:24;;;;;;;4.80;4.40;;;;;;;-145.53;100.00;64590.91;6261764;28;20434;-65
2023/04/19 06:44:28;;;;;;;4.80;4.30;;;;;;;-145.53;100.00;64590.91;6272977;28;20445;-68
2023/04/19 06:47:32;;;;;;;4.83;4.43;;;;;;;-145.53;100.00;64590.91;6276388;28;20439;-65
2023/04/19 06:50:37;;;;;;;4.33;3.93;;;;;;;-145.53;100.00;64590.91;6279702;28;20776;-66
2023/04/19 06:53:40;;;;;;;5.43;4.80;;;;;;;-145.53;100.00;64590.91;6279656;28;20438;-65
2023/04/19 06:56:45;;;;;;;5.90;5.30;;;;;;;-145.53;100.00;64590.91;6269215;28;20430;-65
2023/04/19 06:59:48;;;;;;;6.57;5.00;;;;;;;-145.53;100.00;64590.91;6279867;28;20986;-65
2023/04/19 07:02:53;;;;;;;6.43;5.83;;;;;;;-145.53;100.00;64590.91;6278732;28;20476;-65
2023/04/19 07:05:56;;;;;;;6.70;6.10;;;;;;;-145.53;100.00;64590.91;6279375;28;20431;-65
2023/04/19 07:08:59;;;;;;;6.60;6.00;;;;;;;-145.53;100.00;64590.91;6268232;28;20443;-66
2023/04/19 07:12:02;;;;;;;6.77;6.17;;;;;;;-145.53;100.00;64590.91;6279467;28;20447;-66
2023/04/19 07:15:06;;;;;;;7.33;6.67;;;;;;;-145.53;100.00;64590.91;6275152;28;20455;-66
2023/04/19 07:18:13;;;;;;;9.00;8.27;;;;;;;-145.53;100.00;64590.91;6269897;28;20427;-66
2023/04/19 07:21:16;;;;;;;10.50;9.47;;;;;;;-145.53;100.00;64590.91;6269345;28;20435;-66
2023/04/19 07:24:20;;;;;;;11.07;10.17;;;;;;;-145.53;100.00;64590.91;6274607;28;20919;-66
2023/04/19 07:27:23;;;;;;;12.10;11.10;;;;;;;-145.53;100.00;64590.91;6274438;28;20526;-65
2023/04/19 07:30:26;;;;;;;14.10;12.90;;;;;;;-145.53;100.00;64590.91;6263755;28;20443;-66
2023/04/19 07:33:31;;;;;;;13.67;12.57;;;;;;;-145.53;100.00;64590.91;6274785;28;20438;-66
2023/04/19 07:36:35;;;;;;;15.97;14.63;;;;;;;-145.53;100.00;64590.91;6274417;28;20493;-65
2023/04/19 07:39:39;;;;;;;14.47;13.27;;;;;;;-145.53;100.00;64590.91;6274448;28;20435;-65
2023/04/19 07:42:43;;;;;;;14.90;13.60;;;;;;;-145.53;100.00;64590.91;6263294;28;20577;-66
2023/04/19 07:45:46;;;;;;;17.63;16.20;;;;;;;-145.53;100.00;64590.91;6274039;28;20458;-65
2023/04/19 07:48:50;;;;;;;17.63;16.00;;;;;;;-145.53;100.00;64590.91;6273718;28;20630;-65
2023/04/19 07:51:54;;;;;;;18.70;17.03;;;;;;;-145.53;100.00;64590.91;6274086;28;20473;-67
2023/04/19 07:54:57;;;;;;;18.50;16.90;;;;;;;-145.53;100.00;64590.91;6264154;28;20427;-65
2023/04/19 07:58:01;;;;;;;18.70;17.00;;;;;;;-145.53;100.00;64590.91;6273995;28;20516;-66
2023/04/19 08:01:04;;;;;;;22.77;20.77;;;;;;;-145.53;100.00;64590.91;6274047;28;20434;-66
2023/04/19 08:04:08;;;;;;;22.33;20.43;;;;;;;-145.53;100.00;64590.91;6264492;28;20912;-66
2023/04/19 08:07:12;;;;;;;24.00;21.80;;;;;;;-145.53;100.00;64590.91;6273151;28;20522;-65
2023/04/19 08:10:15;;;;;;;22.80;20.80;;;;;;;-145.53;100.00;64590.91;6273773;28;20489;-66
2023/04/19 08:13:18;;;;;;;22.03;20.13;;;;;;;-145.53;100.00;64590.91;6273704;28;20430;-65
2023/04/19 08:16:21;;;;;;;21.23;19.37;;;;;;;-145.53;100.00;64590.91;6263119;28;20427;-65
2023/04/19 08:19:46;;;;;;;23.43;21.43;;;;;;;-145.53;100.00;64590.91;6273521;28;20782;-65
2023/04/19 08:22:49;;;;;;;19.70;18.00;;;;;;;-145.53;100.00;64590.91;6273869;28;20423;-66
2023/04/19 08:25:52;;;;;;;20.20;18.40;;;;;;;-145.53;100.00;64590.91;6273286;28;20435;-66
2023/04/19 08:28:55;;;;;;;19.80;18.10;;;;;;;-145.53;100.00;64590.91;6262834;28;20435;-65
2023/04/19 08:31:58;;;;;;;19.70;18.00;;;;;;;-145.53;100.00;64590.91;6273763;28;21008;-66
2023/04/19 08:35:03;;;;;;;21.17;19.47;;;;;;;-145.53;100.00;64590.91;6273767;28;20502;-64
2023/04/19 08:38:06;;;;;;;22.63;20.73;;;;;;;-145.53;100.00;64590.91;6266814;28;20435;-67
2023/04/19 08:41:11;;;;;;;25.13;22.87;;;;;;;-145.53;100.00;64590.91;6270235;28;20450;-68
2023/04/19 08:44:17;;;;;;;27.63;25.33;;;;;;;-145.53;100.00;64590.91;6273320;28;20914;-67
2023/04/19 08:47:39;;;;;;;26.83;24.70;;;;;;;-145.53;100.00;64590.91;6272806;28;20427;-67
2023/04/19 08:50:47;;;;;;;23.57;21.67;;;;;;;-145.53;100.00;64590.91;6260018;28;20438;-62
2023/04/19 08:54:07;;;;;;;26.03;23.83;;;;;;;-145.53;100.00;64590.91;6272860;28;20694;-62
2023/04/19 08:57:11;;;;;;;25.10;23.00;;;;;;;-145.53;100.00;64590.91;6272696;28;20507;-65
2023/04/19 09:00:15;;;;;;;26.50;24.20;;;;;;;-145.53;100.00;64590.91;6270755;28;20427;-62
2023/04/19 09:03:18;;;;;;;25.43;23.40;;;;;;;-145.53;100.00;64590.91;6264841;28;20858;-61
2023/04/19 09:06:23;;;;;;;24.60;22.60;;;;;;;-145.53;100.00;64590.91;6272667;28;20947;-62
2023/04/19 09:09:28;;;;;;;25.47;23.40;;;;;;;-145.53;100.00;64590.91;6272654;28;20463;-62
2023/04/19 09:12:41;;;;;;;25.20;23.00;;;;;;;-145.53;100.00;64590.91;6261618;28;20467;-62
2023/04/19 09:15:44;;;;;;;23.40;21.47;;;;;;;-145.53;100.00;64590.91;6272582;28;20439;-63
2023/04/19 09:18:54;;;;;;;24.53;22.53;;;;;;;-145.53;100.00;64590.91;6272743;28;20520;-62
2023/04/19 09:22:18;;;;;;;22.97;21.17;;;;;;;-145.53;100.00;64590.91;6272119;28;20415;-62
2023/04/19 09:25:25;;;;;;;25.17;23.07;;;;;;;-145.53;100.00;64590.91;6261404;28;20811;-62
2023/04/19 09:28:31;;;;;;;22.43;20.50;;;;;;;-145.53;100.00;64590.91;6268745;28;20476;-63
2023/04/19 09:31:36;;;;;;;22.50;20.60;;;;;;;-145.53;100.00;64590.91;6272273;28;20426;-61
2023/04/19 09:34:55;;;;;;;21.70;20.00;;;;;;;-145.53;100.00;64590.91;6266578;28;20439;-62
2023/04/19 09:38:00;;;;;;;23.77;21.77;;;;;;;-145.53;100.00;64590.91;6268435;28;20435;-64
2023/04/19 09:41:07;;;;;;;22.10;20.30;;;;;;;-145.53;100.00;64590.91;6268228;28;20797;-62
2023/04/19 09:44:14;;;;;;;22.93;21.03;;;;;;;-145.53;100.00;64590.91;6272126;28;20443;-62
2023/04/19 09:47:24;;;;;;;21.97;20.17;;;;;;;-145.53;100.00;64590.91;6259435;28;20439;-64
2023/04/19 09:50:27;;;;;;;23.70;21.80;;;;;;;-145.53;100.00;64590.91;6272022;28;20505;-61
2023/04/19 09:53:33;;;;;;;22.70;20.80;;;;;;;-145.53;100.00;64590.91;6271727;28;20813;-62
2023/04/19 09:56:37;;;;;;;20.63;18.93;;;;;;;-145.53;100.00;64590.91;6271897;28;20489;-61
2023/04/19 09:59:40;;;;;;;22.23;20.23;;;;;;;-145.53;100.00;64590.91;6260784;28;20446;-62
2023/04/19 10:02:46;;;;;;;23.00;21.10;;;;;;;-145.53;100.00;64590.91;6271396;28;20500;-63
2023/04/19 10:05:52;;;;;;;21.13;19.33;;;;;;;-145.53;100.00;64590.91;6271829;28;20427;-63
2023/04/19 10:08:56;;;;;;;20.10;18.53;;;;;;;-145.53;100.00;64590.91;6266481;28;20431;-62
2023/04/19 10:12:01;;;;;;;21.20;19.43;;;;;;;-145.53;100.00;64590.91;6266784;28;20427;-63
2023/04/19 10:15:23;;;;;;;19.43;17.87;;;;;;;-145.53;100.00;64590.91;6271650;28;20408;-63
2023/04/19 10:18:27;;;;;;;20.27;18.57;;;;;;;-145.53;100.00;64590.91;6271642;28;20487;-61
2023/04/19 10:21:31;;;;;;;18.40;17.00;;;;;;;-145.53;100.00;64590.91;6260687;28;20427;-64
2023/04/19 10:24:36;;;;;;;19.23;17.63;;;;;;;-145.53;100.00;64590.91;6271684;28;20454;-70
2023/04/19 10:27:40;;;;;;;19.00;17.50;;;;;;;-145.53;100.00;64590.91;6271515;28;20435;-62
2023/04/19 10:30:54;;;;;;;17.57;16.13;;;;;;;-145.53;100.00;64590.91;6271693;28;20435;-62
2023/04/19 10:33:59;;;;;;;18.80;17.30;;;;;;;-145.53;100.00;64590.91;6260788;28;20431;-61
2023/04/19 10:37:04;;;;;;;18.27;16.67;;;;;;;-145.53;100.00;64590.91;6271449;28;20597;-63
2023/04/19 10:40:11;;;;;;;18.80;17.20;;;;;;;-145.53;100.00;64590.91;6271514;28;20415;-61
2023/04/19 10:43:18;;;;;;;17.67;16.27;;;;;;;-145.53;100.00;64590.91;6262139;28;20489;-63
2023/04/19 10:46:36;;;;;;;18.87;17.27;;;;;;;-145.53;100.00;64590.91;6270779;28;20475;-62
2023/04/19 10:49:45;;;;;;;17.67;16.17;;;;;;;-145.53;100.00;64590.91;6272555;28;20498;-63
2023/04/19 10:52:48;;;;;;;18.57;17.07;;;;;;;-145.53;100.00;64590.91;6275432;28;20911;-70
2023/04/19 10:55:52;;;;;;;19.13;17.57;;;;;;;-145.53;100.00;64590.91;6264032;28;20525;-63
2023/04/19 10:59:20;;;;;;;17.93;16.50;;;;;;;-145.53;100.00;64590.91;6275416;28;20423;-63
2023/04/19 11:02:28;;;;;;;17.93;16.43;;;;;;;-145.53;100.00;64590.91;6274813;28;20793;-62
2023/04/19 11:06:06;;;;;;;15.53;14.23;;;;;;;-145.53;100.00;64590.91;6269801;28;21553;-62
2023/04/19 11:09:09;;;;;;;16.97;15.57;;;;;;;-145.53;100.00;64590.91;6274185;28;20439;-62
2023/04/19 11:12:15;;;;;;;17.00;15.60;;;;;;;-145.53;100.00;64590.91;6274862;28;20431;-61
2023/04/19 11:15:22;;;;;;;15.93;14.63;;;;;;;-145.53;100.00;64590.91;6275103;28;20937;-62
2023/04/19 11:18:29;;;;;;;16.87;15.33;;;;;;;-145.53;100.00;64590.91;6264214;28;20820;-61
2023/04/19 11:21:33;;;;;;;16.40;15.10;;;;;;;-145.53;100.00;64590.91;6274847;28;20910;-64
2023/04/19 11:24:36;;;;;;;16.23;14.73;;;;;;;-145.53;100.00;64590.91;6274811;28;21014;-62
2023/04/19 11:27:41;;;;;;;17.00;15.60;;;;;;;-145.53;100.00;64590.91;6274483;28;20447;-63
2023/04/19 11:30:45;;;;;;;18.20;16.73;;;;;;;-145.53;100.00;64590.91;6263400;28;20431;-61
2023/04/19 11:33:48;;;;;;;16.93;15.63;;;;;;;-145.53;100.00;64590.91;6274758;28;20807;-61
2023/04/19 11:36:52;;;;;;;16.43;15.13;;;;;;;-145.53;100.00;64590.91;6274795;28;20584;-61
2023/04/19 11:39:55;;;;;;;16.97;15.47;;;;;;;-145.53;100.00;64590.91;6268008;28;20435;-64
2023/04/19 11:43:02;;;;;;;16.30;15.00;;;;;;;-145.53;100.00;64590.91;6271826;28;20427;-66
2023/04/19 11:46:06;;;;;;;18.43;16.83;;;;;;;-145.53;100.00;64590.91;6274801;28;20510;-60
2023/04/19 11:49:09;;;;;;;20.63;18.93;;;;;;;-145.53;100.00;64590.91;6274299;28;20442;-61
2023/04/19 11:52:12;;;;;;;21.80;20.00;;;;;;;-145.53;100.00;64590.91;6263073;28;20435;-61
2023/04/19 11:55:19;;;;;;;21.00;19.30;;;;;;;-145.53;100.00;64590.91;6274136;28;20485;-62
2023/04/19 11:58:28;;;;;;;21.00;19.30;;;;;;;-145.53;100.00;64590.91;6273760;28;20664;-61
2023/04/19 12:01:31;;;;;;;23.23;21.33;;;;;;;-145.53;100.00;64590.91;6272976;28;20502;-61
2023/04/19 12:04:34;;;;;;;18.90;17.40;;;;;;;-145.53;100.00;64590.91;6262503;28;20581;-62
2023/04/19 12:07:56;;;;;;;18.50;17.00;;;;;;;-145.53;100.00;64590.91;6273861;28;20948;-62
2023/04/19 12:11:01;;;;;;;18.67;17.13;;;;;;;-145.53;100.00;64590.91;6273868;28;20924;-63
2023/04/19 12:14:09;;;;;;;19.57;17.97;;;;;;;-145.53;100.00;64590.91;6265042;28;20431;-63
2023/04/19 12:17:14;;;;;;;18.60;17.20;;;;;;;-145.53;100.00;64590.91;6273289;28;20482;-61
2023/04/19 12:20:29;;;;;;;18.80;17.30;;;;;;;-145.53;100.00;64590.91;6273600;28;20435;-61
2023/04/19 12:23:32;;;;;;;18.23;16.83;;;;;;;-145.53;100.00;64590.91;6273629;28;20407;-63
2023/04/19 12:26:36;;;;;;;17.43;16.10;;;;;;;-145.53;100.00;64590.91;6262961;28;20435;-61
2023/04/19 12:29:40;;;;;;;18.00;16.50;;;;;;;-145.53;100.00;64590.91;6272955;28;20452;-63
2023/04/19 12:32:44;;;;;;;17.37;16.07;;;;;;;-145.53;100.00;64590.91;6273499;28;20434;-62
2023/04/19 12:35:47;;;;;;;17.13;15.80;;;;;;;-145.53;100.00;64590.91;6273292;28;20960;-62
2023/04/19 12:38:50;;;;;;;17.53;16.13;;;;;;;-145.53;100.00;64590.91;6262088;28;20439;-61
2023/04/19 12:41:53;;;;;;;16.10;14.90;;;;;;;-145.53;100.00;64590.91;6273237;28;20430;-63
2023/04/19 12:44:58;;;;;;;18.10;16.60;;;;;;;-145.53;100.00;64590.91;6273511;28;20530;-65
2023/04/19 12:48:01;;;;;;;17.33;15.93;;;;;;;-145.53;100.00;64590.91;6267754;28;20444;-63
2023/04/19 12:51:04;;;;;;;17.77;16.37;;;;;;;-145.53;100.00;64590.91;6268518;28;20435;-63
2023/04/19 12:54:07;;;;;;;17.50;16.00;;;;;;;-145.53;100.00;64590.91;6273012;28;20506;-61
2023/04/19 12:57:10;;;;;;;17.03;15.63;;;;;;;-145.53;100.00;64590.91;6273087;28;20435;-63
2023/04/19 13:00:16;;;;;;;16.83;15.50;;;;;;;-145.53;100.00;64590.91;6261892;28;20562;-62
2023/04/19 13:03:19;;;;;;;15.93;14.73;;;;;;;-145.53;100.00;64590.91;6272500;28;20581;-62
2023/04/19 13:06:22;;;;;;;16.43;15.17;;;;;;;-145.53;100.00;64590.91;6273052;28;20669;-62
2023/04/19 13:09:27;;;;;;;16.73;15.40;;;;;;;-145.53;100.00;64590.91;6272937;28;20443;-63
2023/04/19 13:12:30;;;;;;;16.30;15.00;;;;;;;-145.53;100.00;64590.91;6261203;28;20931;-61
2023/04/19 13:15:35;;;;;;;16.17;14.87;;;;;;;-145.53;100.00;64590.91;6272729;28;20423;-61
2023/04/19 13:18:38;;;;;;;15.77;14.47;;;;;;;-145.53;100.00;64590.91;6272776;28;20439;-68
2023/04/19 13:21:42;;;;;;;14.83;13.67;;;;;;;-145.53;100.00;64590.91;6268664;28;20430;-63
2023/04/19 13:24:45;;;;;;;15.57;14.30;;;;;;;-145.53;100.00;64590.91;6266103;28;20431;-62
2023/04/19 13:27:48;;;;;;;14.80;13.60;;;;;;;-145.53;100.00;64590.91;6272418;28;20454;-62
2023/04/19 13:30:52;;;;;;;15.10;13.90;;;;;;;-145.53;100.00;64590.91;6272304;28;20454;-62
2023/04/19 13:33:55;;;;;;;15.03;13.83;;;;;;;-145.53;100.00;64590.91;6261585;28;20981;-62
2023/04/19 13:36:58;;;;;;;14.17;13.07;;;;;;;-145.53;100.00;64590.91;6272540;28;20418;-62
2023/04/19 13:40:02;;;;;;;14.00;12.83;;;;;;;-145.53;100.00;64590.91;6272442;28;20426;-62
2023/04/19 13:43:21;;;;;;;14.67;13.47;;;;;;;-145.53;100.00;64590.91;6272264;28;20419;-61
2023/04/19 13:46:25;;;;;;;13.57;12.53;;;;;;;-145.53;100.00;64590.91;6261272;28;20453;-63
2023/04/19 13:49:28;;;;;;;14.07;12.97;;;;;;;-145.53;100.00;64590.91;6272086;28;20427;-62